Terminal Aerodrome Forecast
Issued by NWS Sterling, VA

Current Version | Previous Version | Graphics & Text | Print | Product List | Glossary On
Versions: 1 2 3 4 5 6 7 8 9 10 11 12 13 14 15 16 17 18 19 20 21 22 23 24 25
000
FTUS41 KLWX 161617 AAB
TAFDCA
TAF AMD
KDCA 161617Z 1616/1718 16004KT P6SM SCT015 BKN150
     FM170500 34005KT P6SM OVC015
     FM170700 33007KT 4SM -SN OVC008
     FM171100 33010G18KT 3SM -SN OVC008
     FM171300 33013G21KT P6SM OVC050=

USA.gov is the U.S. government's official web portal to all federal, state and local government web resources and services.